Time;durP1;ratioP1;P1;durP2;ratioP2;P2;SDS_P1;SDS_P2;PMS_P1;PMS_P2;Temp;Humidity;BMP_temperature;BMP_pressure;BME280_temperature;BME280_humidity;BME280_pressure;Samples;Min_cycle;Max_cycle;Signal;HPM_P1;HPM_P2
2021/08/24 00:01:33;;;;;;;6.00;3.15;;;19.60;81.00;;;;;;5005874;28;20448;-85
2021/08/24 00:03:59;;;;;;;10.90;3.17;;;19.50;81.60;;;;;;5003633;28;20019;-85
2021/08/24 00:06:24;;;;;;;10.65;3.75;;;19.50;81.10;;;;;;5011045;28;20034;-85
2021/08/24 00:08:50;;;;;;;8.52;3.85;;;19.50;81.20;;;;;;5012539;28;20045;-85
2021/08/24 00:11:16;;;;;;;11.18;3.50;;;19.40;81.40;;;;;;5010473;28;20030;-84
2021/08/24 00:13:42;;;;;;;10.55;3.25;;;19.40;81.40;;;;;;5006808;28;20382;-84
2021/08/24 00:16:08;;;;;;;10.20;3.45;;;19.40;81.50;;;;;;5009295;28;20057;-86
2021/08/24 00:18:34;;;;;;;8.77;3.58;;;19.40;81.60;;;;;;4998516;28;20034;-85
2021/08/24 00:21:00;;;;;;;11.45;3.30;;;19.40;81.70;;;;;;5007334;28;20042;-85
2021/08/24 00:23:28;;;;;;;9.13;3.50;;;19.40;81.80;;;;;;5013969;28;20065;-85
2021/08/24 00:25:54;;;;;;;6.80;3.17;;;19.30;81.90;;;;;;5006759;28;20046;-84
2021/08/24 00:28:21;;;;;;;6.80;3.22;;;19.40;82.10;;;;;;4997156;28;20023;-86
2021/08/24 00:30:46;;;;;;;10.23;3.15;;;19.30;82.10;;;;;;5002729;28;20034;-85
2021/08/24 00:33:14;;;;;;;7.10;3.45;;;19.30;82.70;;;;;;5004281;28;20033;-85
2021/08/24 00:35:41;;;;;;;4.60;3.03;;;19.30;82.10;;;;;;5013263;28;20030;-84
2021/08/24 00:38:12;;;;;;;9.73;3.38;;;19.20;82.20;;;;;;5014894;28;20026;-85
2021/08/24 00:40:39;;;;;;;9.02;3.95;;;19.20;82.30;;;;;;4999000;28;20049;-85
2021/08/24 00:43:10;;;;;;;7.65;3.70;;;19.20;82.30;;;;;;5014658;28;20025;-85
2021/08/24 00:45:42;;;;;;;7.20;3.38;;;19.20;82.30;;;;;;5014000;28;20660;-85
2021/08/24 00:48:09;;;;;;;7.88;3.28;;;19.20;82.30;;;;;;5013625;28;20061;-84
2021/08/24 00:50:41;;;;;;;8.07;3.85;;;19.20;82.30;;;;;;5015028;28;20030;-84
2021/08/24 00:53:10;;;;;;;9.15;3.60;;;19.10;82.50;;;;;;5001057;28;20906;-84
2021/08/24 00:55:40;;;;;;;9.68;3.38;;;19.20;82.60;;;;;;5014918;28;20559;-84
2021/08/24 00:58:10;;;;;;;5.68;3.28;;;19.10;82.70;;;;;;5001380;28;20068;-84
2021/08/24 01:00:37;;;;;;;10.00;3.10;;;19.20;82.90;;;;;;5014551;28;20061;-84
2021/08/24 01:03:09;;;;;;;9.23;3.55;;;19.10;83.00;;;;;;5012708;28;20096;-83
2021/08/24 01:05:37;;;;;;;7.75;3.15;;;19.10;83.00;;;;;;5013560;28;20026;-85
2021/08/24 01:08:49;;;;;;;7.75;2.97;;;19.10;83.00;;;;;;5012023;28;20045;-85
2021/08/24 01:11:28;;;;;;;11.88;3.50;;;19.10;82.90;;;;;;4972570;28;20130;-84
2021/08/24 01:14:08;;;;;;;8.88;2.92;;;19.00;82.90;;;;;;5000645;28;20044;-84
2021/08/24 01:16:40;;;;;;;6.88;2.97;;;19.10;83.00;;;;;;5012915;28;20030;-85
2021/08/24 01:19:24;;;;;;;10.32;2.80;;;19.00;83.00;;;;;;5014530;28;20155;-85
2021/08/24 01:22:17;;;;;;;5.55;2.65;;;19.00;83.10;;;;;;5012532;28;20045;-85
2021/08/24 01:25:30;;;;;;;5.85;2.83;;;19.00;83.20;;;;;;5013461;28;20092;-85
2021/08/24 01:28:20;;;;;;;6.63;2.90;;;18.90;83.20;;;;;;4954200;28;20130;-84
2021/08/24 01:31:19;;;;;;;6.60;3.10;;;18.90;83.40;;;;;;4953184;28;20027;-85
2021/08/24 01:33:53;;;;;;;8.38;2.78;;;18.90;83.50;;;;;;4990910;28;20038;-84
2021/08/24 01:36:24;;;;;;;8.43;2.88;;;18.80;83.70;;;;;;5002977;28;20026;-85
2021/08/24 01:39:27;;;;;;;8.18;3.13;;;18.90;84.00;;;;;;5012384;28;20029;-85
2021/08/24 01:42:18;;;;;;;11.65;3.00;;;18.90;84.20;;;;;;5006060;28;20053;-84
2021/08/24 01:45:10;;;;;;;7.50;3.00;;;18.90;84.50;;;;;;4995666;28;20033;-85
2021/08/24 01:47:42;;;;;;;5.40;3.28;;;18.90;84.60;;;;;;5010486;28;20129;-85
2021/08/24 01:50:25;;;;;;;8.98;3.35;;;18.80;84.70;;;;;;4994838;28;20030;-85
2021/08/24 01:52:57;;;;;;;6.70;2.80;;;18.80;84.80;;;;;;5009895;28;20551;-85
2021/08/24 01:55:27;;;;;;;7.45;3.35;;;18.70;84.80;;;;;;5005538;28;20413;-84
2021/08/24 01:58:04;;;;;;;8.18;2.50;;;18.70;84.90;;;;;;4994591;28;20041;-85
2021/08/24 02:00:36;;;;;;;8.15;3.35;;;18.70;85.00;;;;;;5003645;28;20112;-85
2021/08/24 02:03:06;;;;;;;15.77;3.30;;;18.70;85.00;;;;;;5012705;28;20026;-85
2021/08/24 02:06:07;;;;;;;6.07;3.20;;;18.70;85.10;;;;;;5011658;28;20036;-85
2021/08/24 02:08:36;;;;;;;15.88;3.65;;;18.70;85.20;;;;;;4969087;28;20062;-85
2021/08/24 02:11:05;;;;;;;11.75;2.85;;;18.70;85.10;;;;;;4995693;28;20034;-85
2021/08/24 02:13:39;;;;;;;10.90;3.17;;;18.70;85.30;;;;;;4997170;28;20038;-85
2021/08/24 02:16:09;;;;;;;6.15;2.70;;;18.60;85.50;;;;;;5001054;28;20026;-85
2021/08/24 02:18:38;;;;;;;12.45;2.95;;;18.60;85.60;;;;;;5009500;28;20481;-85
2021/08/24 02:21:20;;;;;;;8.48;2.92;;;18.60;85.70;;;;;;5029737;28;20084;-85
2021/08/24 02:23:49;;;;;;;7.65;2.88;;;18.60;85.90;;;;;;4997883;28;20034;-85
2021/08/24 02:26:16;;;;;;;8.80;2.78;;;18.50;85.90;;;;;;5020495;28;20112;-84
2021/08/24 02:28:55;;;;;;;8.50;2.88;;;18.50;86.00;;;;;;5008999;28;20034;-86
2021/08/24 02:31:34;;;;;;;10.60;3.05;;;18.60;86.20;;;;;;5001642;28;20039;-85
2021/08/24 02:34:26;;;;;;;8.18;2.60;;;18.50;86.10;;;;;;5008287;28;20030;-85
2021/08/24 02:37:11;;;;;;;4.00;2.35;;;18.50;86.20;;;;;;5003975;28;20050;-85
2021/08/24 02:39:52;;;;;;;6.13;2.40;;;18.50;86.20;;;;;;5006938;28;20035;-85
2021/08/24 02:42:29;;;;;;;7.55;2.92;;;18.40;86.40;;;;;;5007675;28;20042;-85
2021/08/24 02:45:03;;;;;;;4.88;3.47;;;18.40;86.60;;;;;;5005008;28;20092;-83
2021/08/24 02:47:30;;;;;;;8.18;3.13;;;18.40;86.60;;;;;;5013891;28;20065;-85
2021/08/24 02:49:56;;;;;;;14.52;3.33;;;18.30;86.60;;;;;;5027861;28;20033;-86
2021/08/24 02:52:23;;;;;;;7.43;2.42;;;18.40;86.80;;;;;;5009228;28;20028;-85
2021/08/24 02:54:51;;;;;;;4.65;2.50;;;18.40;87.00;;;;;;5013134;28;20523;-85
2021/08/24 02:57:17;;;;;;;6.95;2.85;;;18.30;86.90;;;;;;5002161;28;20026;-85
2021/08/24 02:59:43;;;;;;;7.53;2.78;;;18.40;87.00;;;;;;5002167;28;20521;-86
2021/08/24 03:02:10;;;;;;;8.15;2.72;;;18.40;87.10;;;;;;5013086;28;20029;-85
2021/08/24 03:04:36;;;;;;;7.78;2.42;;;18.30;87.10;;;;;;5009911;28;20042;-85
2021/08/24 03:07:18;;;;;;;5.72;2.63;;;18.30;87.10;;;;;;5012094;28;20036;-85
2021/08/24 03:09:46;;;;;;;6.57;2.30;;;18.30;87.00;;;;;;5000232;28;20104;-85
2021/08/24 03:12:42;;;;;;;9.80;2.70;;;18.30;86.90;;;;;;5011401;28;20026;-85
2021/08/24 03:15:20;;;;;;;7.80;2.80;;;18.30;86.90;;;;;;4995638;28;20113;-85
2021/08/24 03:17:56;;;;;;;5.50;2.30;;;18.30;87.10;;;;;;5000927;28;20437;-85
2021/08/24 03:20:28;;;;;;;6.03;2.58;;;18.30;87.30;;;;;;4998247;28;20034;-84
2021/08/24 03:22:55;;;;;;;8.07;2.97;;;18.30;87.40;;;;;;5007199;28;20080;-85
2021/08/24 03:25:22;;;;;;;10.15;2.75;;;18.20;87.10;;;;;;5002019;28;20037;-85
2021/08/24 03:27:51;;;;;;;11.23;2.08;;;18.20;87.00;;;;;;5002000;28;20100;-84
2021/08/24 03:30:18;;;;;;;7.57;2.65;;;18.20;87.00;;;;;;5009483;28;20034;-85
2021/08/24 03:32:44;;;;;;;12.02;2.63;;;18.20;87.00;;;;;;5003975;28;20529;-86
2021/08/24 03:35:11;;;;;;;7.00;2.38;;;18.20;87.00;;;;;;5010399;28;20117;-85
2021/08/24 03:37:37;;;;;;;4.55;2.50;;;18.20;87.00;;;;;;5011786;28;20018;-85
2021/08/24 03:40:06;;;;;;;5.13;2.60;;;18.10;87.00;;;;;;5005460;28;20573;-85
2021/08/24 03:42:31;;;;;;;4.85;2.53;;;18.10;86.80;;;;;;5009048;28;20041;-86
2021/08/24 03:44:57;;;;;;;8.10;2.58;;;18.10;86.80;;;;;;5008125;28;20077;-85
2021/08/24 03:47:23;;;;;;;8.15;2.70;;;18.10;86.80;;;;;;5012580;28;20038;-85
2021/08/24 03:49:49;;;;;;;5.70;2.42;;;18.10;86.80;;;;;;5015710;28;20030;-86
2021/08/24 03:52:14;;;;;;;7.68;2.85;;;18.00;86.60;;;;;;5009657;28;20420;-82
2021/08/24 03:54:40;;;;;;;6.43;2.40;;;18.10;86.60;;;;;;5010163;28;20532;-86
2021/08/24 03:57:06;;;;;;;5.35;2.17;;;18.10;86.60;;;;;;5009625;28;20034;-84
2021/08/24 03:59:32;;;;;;;6.40;2.67;;;18.00;86.60;;;;;;5012407;28;20493;-86
2021/08/24 04:01:57;;;;;;;6.50;2.75;;;18.00;86.60;;;;;;5000679;28;20501;-83
2021/08/24 04:04:23;;;;;;;8.63;3.10;;;18.00;86.70;;;;;;5012657;28;20042;-85
2021/08/24 04:06:49;;;;;;;9.45;2.80;;;18.00;86.70;;;;;;5015719;28;20026;-85
2021/08/24 04:09:14;;;;;;;6.13;2.88;;;18.00;86.70;;;;;;5015102;28;20030;-83
2021/08/24 04:11:43;;;;;;;5.63;3.00;;;18.00;86.80;;;;;;5014977;28;20034;-84
2021/08/24 04:14:08;;;;;;;12.15;3.22;;;18.00;86.80;;;;;;4997514;28;20030;-85
2021/08/24 04:16:34;;;;;;;6.75;3.30;;;17.90;86.80;;;;;;5006198;28;20041;-85
2021/08/24 04:19:00;;;;;;;6.32;3.47;;;17.90;86.80;;;;;;5005623;28;20490;-87
2021/08/24 04:21:26;;;;;;;7.57;3.08;;;17.90;86.90;;;;;;5009186;28;20034;-82
2021/08/24 04:23:52;;;;;;;6.57;3.15;;;17.90;86.80;;;;;;5010190;28;20030;-83
2021/08/24 04:26:18;;;;;;;11.35;3.30;;;17.90;86.70;;;;;;5014339;28;20374;-84
2021/08/24 04:28:44;;;;;;;7.68;3.85;;;17.90;86.70;;;;;;5002064;28;20041;-84
2021/08/24 04:31:13;;;;;;;5.63;3.20;;;17.90;86.70;;;;;;5008432;28;20029;-84
2021/08/24 04:33:39;;;;;;;7.68;3.53;;;17.90;86.80;;;;;;5005794;28;20033;-84
2021/08/24 04:36:06;;;;;;;7.80;3.22;;;17.90;86.80;;;;;;5005304;28;20058;-85
2021/08/24 04:38:33;;;;;;;7.47;4.53;;;17.90;86.90;;;;;;5000044;28;20096;-84
2021/08/24 04:40:59;;;;;;;9.35;4.20;;;17.80;86.90;;;;;;4998634;28;20038;-83
2021/08/24 04:43:25;;;;;;;10.02;3.85;;;17.80;86.80;;;;;;5008044;28;20034;-84
2021/08/24 04:45:51;;;;;;;11.50;3.47;;;17.80;86.70;;;;;;5009131;28;20132;-85
2021/08/24 04:48:17;;;;;;;4.82;3.30;;;17.80;86.80;;;;;;5005388;28;20026;-84
2021/08/24 04:50:43;;;;;;;12.75;3.53;;;17.80;86.90;;;;;;5001891;28;20041;-84
2021/08/24 04:53:09;;;;;;;8.32;3.28;;;17.80;87.00;;;;;;5003136;28;20030;-84
2021/08/24 04:55:35;;;;;;;7.15;3.28;;;17.80;87.00;;;;;;5008833;28;20037;-84
2021/08/24 04:58:02;;;;;;;6.20;3.10;;;17.70;87.00;;;;;;5006817;28;20525;-84
2021/08/24 05:00:30;;;;;;;8.75;4.30;;;17.70;87.20;;;;;;5000839;28;20034;-85
2021/08/24 05:02:56;;;;;;;6.03;3.17;;;17.70;87.30;;;;;;5000093;28;20040;-83
2021/08/24 05:05:22;;;;;;;5.38;3.42;;;17.70;87.30;;;;;;5005276;28;20023;-85
2021/08/24 05:07:48;;;;;;;6.70;2.90;;;17.70;87.50;;;;;;5002583;28;20529;-83
2021/08/24 05:10:13;;;;;;;9.60;2.97;;;17.70;87.60;;;;;;5014290;28;20038;-83
2021/08/24 05:12:39;;;;;;;6.70;2.95;;;17.70;88.20;;;;;;5005624;28;20022;-84
2021/08/24 05:15:05;;;;;;;7.80;2.95;;;17.70;87.60;;;;;;5011367;28;20473;-82
2021/08/24 05:17:31;;;;;;;3.78;2.53;;;17.70;87.70;;;;;;5002680;28;20478;-78
2021/08/24 05:19:57;;;;;;;9.13;3.10;;;17.70;87.80;;;;;;4997428;28;20080;-75
2021/08/24 05:22:22;;;;;;;8.02;2.70;;;17.70;87.90;;;;;;5012049;28;20065;-75
2021/08/24 05:24:48;;;;;;;9.55;2.75;;;17.70;88.00;;;;;;5012681;28;20057;-75
2021/08/24 05:27:15;;;;;;;3.25;2.45;;;17.70;88.30;;;;;;5009341;28;20113;-86
2021/08/24 05:29:41;;;;;;;6.07;2.53;;;17.70;88.20;;;;;;5001062;28;20116;-82
2021/08/24 05:32:07;;;;;;;10.77;2.95;;;17.70;88.50;;;;;;5003115;28;20029;-82
2021/08/24 05:34:32;;;;;;;3.72;2.10;;;17.70;88.80;;;;;;4999759;28;20457;-83
2021/08/24 05:36:58;;;;;;;8.70;2.75;;;17.70;89.20;;;;;;4999214;28;20026;-83
2021/08/24 05:39:24;;;;;;;7.85;2.70;;;17.70;89.60;;;;;;4999583;28;20117;-82
2021/08/24 05:41:50;;;;;;;6.00;3.58;;;17.80;90.00;;;;;;5000867;28;20054;-82
2021/08/24 05:44:15;;;;;;;4.97;2.67;;;17.80;90.10;;;;;;4995837;28;20513;-84
2021/08/24 05:46:41;;;;;;;3.38;2.25;;;17.80;90.20;;;;;;5015262;28;20076;-83
2021/08/24 05:49:10;;;;;;;6.93;3.00;;;17.80;90.50;;;;;;5008440;28;20166;-82
2021/08/24 05:51:38;;;;;;;6.78;2.35;;;17.80;90.70;;;;;;5009367;28;20030;-85
2021/08/24 05:54:04;;;;;;;5.28;3.03;;;17.80;90.80;;;;;;5001913;28;20096;-84
2021/08/24 05:56:31;;;;;;;9.65;2.40;;;17.80;90.90;;;;;;5001128;28;20426;-83
2021/08/24 05:58:57;;;;;;;8.00;2.63;;;17.90;91.00;;;;;;4998212;28;20054;-85
2021/08/24 06:01:31;;;;;;;12.55;3.03;;;17.90;91.20;;;;;;5003528;28;20046;-79
2021/08/24 06:04:00;;;;;;;6.57;2.58;;;17.90;91.30;;;;;;5001543;28;20644;-85
2021/08/24 06:06:29;;;;;;;7.82;2.97;;;17.90;91.40;;;;;;5012119;28;20033;-81
2021/08/24 06:08:56;;;;;;;8.52;2.28;;;17.90;91.60;;;;;;5005267;28;20425;-80
2021/08/24 06:11:25;;;;;;;8.43;2.63;;;18.00;91.70;;;;;;5002537;28;20034;-79
2021/08/24 06:13:51;;;;;;;8.52;2.70;;;18.00;91.80;;;;;;4996665;28;20419;-80
2021/08/24 06:16:16;;;;;;;4.25;2.30;;;18.00;91.70;;;;;;5005687;28;20034;-79
2021/08/24 06:18:43;;;;;;;14.70;3.28;;;18.10;91.90;;;;;;5003233;28;20473;-87
2021/08/24 06:21:09;;;;;;;9.30;2.58;;;18.10;91.90;;;;;;5000496;28;20096;-79
2021/08/24 06:23:35;;;;;;;5.95;2.88;;;18.10;92.00;;;;;;5000993;28;20041;-80
2021/08/24 06:26:01;;;;;;;14.15;3.53;;;18.20;92.00;;;;;;5003176;28;20058;-80
2021/08/24 06:28:26;;;;;;;8.43;2.38;;;18.20;92.10;;;;;;5001175;28;20150;-81
2021/08/24 06:30:52;;;;;;;4.15;2.42;;;18.20;92.20;;;;;;5001023;28;20088;-78
2021/08/24 06:33:20;;;;;;;7.20;2.83;;;18.30;92.30;;;;;;5001425;28;20030;-80
2021/08/24 06:35:46;;;;;;;5.20;2.67;;;18.30;92.30;;;;;;4998435;28;20085;-79
2021/08/24 06:38:12;;;;;;;8.85;2.50;;;18.30;92.40;;;;;;5006167;28;20070;-80
2021/08/24 06:40:39;;;;;;;7.57;2.25;;;18.30;92.40;;;;;;5004001;28;20555;-79
2021/08/24 06:43:08;;;;;;;9.18;2.40;;;18.40;92.40;;;;;;5008032;28;20100;-79
2021/08/24 06:45:33;;;;;;;7.68;3.25;;;18.40;92.40;;;;;;5010647;28;20124;-79
2021/08/24 06:47:59;;;;;;;6.53;2.50;;;18.40;92.50;;;;;;5008052;28;20109;-82
2021/08/24 06:50:28;;;;;;;11.80;3.60;;;18.50;92.60;;;;;;5010219;28;20053;-78
2021/08/24 06:52:54;;;;;;;6.95;2.33;;;18.50;92.60;;;;;;5009035;28;20033;-82
2021/08/24 06:55:20;;;;;;;18.25;2.50;;;18.50;92.50;;;;;;5007220;28;20030;-79
2021/08/24 06:57:46;;;;;;;8.05;2.67;;;18.60;92.50;;;;;;4994923;28;20499;-79
2021/08/24 07:00:18;;;;;;;8.98;2.05;;;18.60;92.60;;;;;;5007608;28;20124;-79
2021/08/24 07:02:44;;;;;;;12.18;2.70;;;18.60;92.50;;;;;;5007098;28;20033;-79
2021/08/24 07:05:11;;;;;;;9.02;2.28;;;18.70;92.30;;;;;;5005868;28;20030;-79
2021/08/24 07:07:37;;;;;;;9.10;2.13;;;18.70;92.30;;;;;;5002138;28;20466;-79
2021/08/24 07:10:05;;;;;;;5.85;2.40;;;18.70;92.20;;;;;;5008981;28;20033;-79
2021/08/24 07:12:30;;;;;;;4.85;2.10;;;18.70;92.20;;;;;;5001717;28;20085;-79
2021/08/24 07:14:57;;;;;;;6.88;2.70;;;18.70;92.20;;;;;;5006591;28;20461;-78
2021/08/24 07:17:23;;;;;;;6.25;2.50;;;18.70;92.30;;;;;;5008063;28;20022;-79
2021/08/24 07:19:50;;;;;;;6.05;2.60;;;18.70;92.30;;;;;;5009355;28;20030;-78
2021/08/24 07:22:15;;;;;;;7.63;2.40;;;18.80;92.20;;;;;;5011035;28;20083;-81
2021/08/24 07:24:41;;;;;;;7.20;3.42;;;18.80;92.20;;;;;;5009947;28;20545;-81
2021/08/24 07:27:07;;;;;;;5.13;1.90;;;18.90;92.20;;;;;;5002459;28;20034;-82
2021/08/24 07:29:33;;;;;;;7.18;2.42;;;18.90;91.90;;;;;;5002203;28;20044;-82
2021/08/24 07:31:59;;;;;;;6.72;2.03;;;18.90;91.60;;;;;;5003967;28;20071;-82
2021/08/24 07:34:25;;;;;;;4.85;2.53;;;19.00;91.60;;;;;;5009499;28;20084;-82
2021/08/24 07:36:51;;;;;;;9.02;2.42;;;19.00;91.50;;;;;;5004970;28;20044;-81
2021/08/24 07:39:16;;;;;;;6.53;2.60;;;19.10;91.50;;;;;;5007589;28;20466;-82
2021/08/24 07:41:42;;;;;;;8.15;2.55;;;19.10;91.40;;;;;;5008070;28;20041;-81
2021/08/24 07:44:08;;;;;;;7.47;2.30;;;19.10;91.20;;;;;;5011830;28;20026;-82
2021/08/24 07:46:34;;;;;;;5.97;2.30;;;19.20;91.10;;;;;;5010929;28;20053;-83
2021/08/24 07:48:59;;;;;;;8.02;2.55;;;19.20;91.00;;;;;;5010910;28;20032;-81
2021/08/24 07:51:25;;;;;;;6.07;2.13;;;19.20;91.00;;;;;;5004511;28;20112;-82
2021/08/24 07:53:51;;;;;;;4.30;1.98;;;19.20;90.90;;;;;;5004316;28;20036;-82
2021/08/24 07:56:19;;;;;;;5.30;1.88;;;19.20;90.80;;;;;;5011567;28;20165;-82
2021/08/24 07:58:45;;;;;;;7.53;1.77;;;19.30;90.80;;;;;;5006156;28;20030;-82
2021/08/24 08:01:11;;;;;;;3.70;1.98;;;19.30;90.80;;;;;;5006137;28;20047;-81
2021/08/24 08:03:36;;;;;;;9.85;2.00;;;19.40;90.60;;;;;;5011226;28;20030;-81
2021/08/24 08:06:02;;;;;;;4.13;2.08;;;19.40;90.40;;;;;;5010862;28;20036;-82
2021/08/24 08:08:28;;;;;;;8.55;2.03;;;19.50;90.30;;;;;;5004781;28;20030;-82
2021/08/24 08:10:56;;;;;;;7.78;2.17;;;19.40;90.20;;;;;;5009896;28;20492;-81
2021/08/24 08:13:23;;;;;;;4.90;1.83;;;19.50;90.10;;;;;;5008286;28;20030;-81
2021/08/24 08:15:49;;;;;;;7.50;2.28;;;19.60;90.10;;;;;;5011937;28;20034;-82
2021/08/24 08:18:15;;;;;;;6.97;2.08;;;19.60;89.90;;;;;;5000478;28;20030;-81
2021/08/24 08:20:44;;;;;;;6.15;1.95;;;19.60;89.90;;;;;;5010523;28;20547;-82
2021/08/24 08:23:10;;;;;;;5.75;1.85;;;19.70;89.60;;;;;;5002527;28;20026;-81
2021/08/24 08:25:36;;;;;;;4.18;1.70;;;19.60;89.20;;;;;;5008128;28;20064;-81
2021/08/24 08:28:02;;;;;;;6.25;2.45;;;19.70;88.90;;;;;;5006353;28;20033;-81
2021/08/24 08:30:30;;;;;;;3.25;1.70;;;19.70;88.70;;;;;;5007127;28;20030;-81
2021/08/24 08:32:59;;;;;;;7.25;2.08;;;19.80;88.90;;;;;;5006456;28;20130;-81
2021/08/24 08:35:25;;;;;;;4.03;1.67;;;19.80;88.50;;;;;;5008254;28;20030;-82
2021/08/24 08:37:51;;;;;;;7.45;1.80;;;19.80;88.70;;;;;;5012253;28;20551;-82
2021/08/24 08:40:51;;;;;;;1.88;1.50;;;19.90;88.20;;;;;;5005673;28;20034;-81
2021/08/24 08:43:38;;;;;;;5.95;1.98;;;19.90;88.10;;;;;;4993351;28;20077;-82
2021/08/24 08:46:21;;;;;;;6.70;2.03;;;20.00;87.40;;;;;;5004220;28;20041;-82
2021/08/24 08:49:16;;;;;;;;;;;20.00;87.20;;;;;;5014698;28;20029;-81
2021/08/24 08:51:49;;;;;;;9.18;2.30;;;20.00;87.10;;;;;;5000860;28;19945;-81
2021/08/24 08:55:14;;;;;;;2.92;1.70;;;20.10;86.60;;;;;;5023507;28;20045;-81
2021/08/24 08:57:46;;;;;;;4.50;2.15;;;20.10;86.60;;;;;;4966411;28;20034;-81
2021/08/24 09:00:16;;;;;;;4.53;1.90;;;20.20;86.20;;;;;;5001672;28;20042;-81
2021/08/24 09:03:04;;;;;;;7.57;2.20;;;20.20;86.10;;;;;;5004990;28;20042;-81
2021/08/24 09:05:30;;;;;;;8.18;2.15;;;20.20;85.90;;;;;;5010922;28;20021;-78
2021/08/24 09:07:58;;;;;;;4.80;1.95;;;20.30;85.50;;;;;;5014924;28;20030;-79
2021/08/24 09:10:48;;;;;;;4.93;2.05;;;20.30;85.40;;;;;;5012864;28;20552;-77
2021/08/24 09:13:26;;;;;;;7.85;2.08;;;20.40;85.30;;;;;;4997729;28;20100;-79
2021/08/24 09:16:01;;;;;;;5.30;2.33;;;20.50;84.90;;;;;;5012303;28;20026;-78
2021/08/24 09:18:42;;;;;;;3.78;2.05;;;20.50;84.70;;;;;;5004566;28;20061;-78
2021/08/24 09:21:10;;;;;;;4.15;2.17;;;20.50;84.60;;;;;;5002547;28;20116;-78
2021/08/24 09:23:36;;;;;;;6.68;2.35;;;20.50;84.60;;;;;;5003472;28;20030;-79
2021/08/24 09:26:29;;;;;;;3.22;1.70;;;20.70;84.50;;;;;;5005351;28;20046;-87
2021/08/24 09:28:56;;;;;;;5.75;1.98;;;20.60;84.40;;;;;;5006691;28;20041;-86
2021/08/24 09:31:23;;;;;;;8.05;2.15;;;20.60;85.00;;;;;;5013436;28;20030;-79
2021/08/24 09:33:49;;;;;;;5.65;2.00;;;20.70;84.40;;;;;;5014291;28;20437;-82
2021/08/24 09:36:17;;;;;;;6.75;2.03;;;20.70;84.20;;;;;;5007902;28;20397;-82
2021/08/24 09:38:52;;;;;;;5.63;2.03;;;20.80;84.60;;;;;;5006731;28;20474;-81
2021/08/24 09:41:28;;;;;;;5.40;1.75;;;20.80;84.20;;;;;;5014748;28;20045;-81
2021/08/24 09:43:57;;;;;;;3.47;2.00;;;20.80;84.10;;;;;;4997699;28;20038;-81
2021/08/24 09:46:23;;;;;;;6.85;2.10;;;20.90;84.00;;;;;;4999158;28;20541;-81
2021/08/24 09:49:26;;;;;;;4.32;2.20;;;20.90;83.70;;;;;;5000130;28;20097;-81
2021/08/24 09:52:14;;;;;;;7.72;2.10;;;20.90;83.60;;;;;;5004826;28;20359;-81
2021/08/24 09:54:54;;;;;;;8.55;2.20;;;20.90;83.00;;;;;;5000471;28;20042;-80
2021/08/24 09:57:26;;;;;;;3.45;1.80;;;21.00;83.00;;;;;;5000644;28;20036;-80
2021/08/24 10:00:27;;;;;;;6.18;1.98;;;21.00;83.30;;;;;;5011563;28;20393;-80
2021/08/24 10:02:58;;;;;;;18.90;3.22;;;21.10;83.00;;;;;;4997808;28;20046;-80
2021/08/24 10:05:23;;;;;;;6.93;2.15;;;21.10;83.20;;;;;;5003878;28;21713;-81
2021/08/24 10:07:55;;;;;;;4.43;1.90;;;21.10;82.60;;;;;;5000672;28;20033;-80
2021/08/24 10:10:34;;;;;;;6.70;1.90;;;21.20;82.60;;;;;;5005633;28;20040;-81
2021/08/24 10:13:32;;;;;;;5.20;2.28;;;21.20;82.00;;;;;;5004532;28;20025;-81
2021/08/24 10:16:28;;;;;;;5.05;1.98;;;21.30;82.00;;;;;;5005754;28;20063;-81
2021/08/24 10:19:22;;;;;;;5.25;2.05;;;21.40;82.20;;;;;;5009959;28;20049;-82
2021/08/24 10:21:53;;;;;;;;;;;21.40;81.90;;;;;;5003825;28;20038;-78
2021/08/24 10:24:28;;;;;;;4.35;2.17;;;21.40;82.30;;;;;;5003479;28;19909;-81
2021/08/24 10:26:59;;;;;;;4.22;2.30;;;21.50;81.90;;;;;;4998611;28;20065;-80
2021/08/24 10:29:34;;;;;;;5.95;1.98;;;21.50;81.60;;;;;;4997867;28;20037;-82
2021/08/24 10:32:04;;;;;;;3.58;1.75;;;21.50;81.70;;;;;;5006334;28;20030;-81
2021/08/24 10:34:42;;;;;;;4.25;1.85;;;21.50;81.40;;;;;;4998943;28;20026;-82
2021/08/24 10:37:23;;;;;;;10.38;2.17;;;21.60;81.80;;;;;;5007803;28;20050;-82
2021/08/24 10:39:54;;;;;;;8.00;2.33;;;21.60;81.20;;;;;;5007669;28;20113;-80
2021/08/24 10:42:23;;;;;;;8.15;2.30;;;21.70;81.10;;;;;;5005128;28;20037;-80
2021/08/24 10:45:00;;;;;;;7.72;2.13;;;21.80;80.80;;;;;;5003247;28;20026;-79
2021/08/24 10:47:26;;;;;;;6.72;2.40;;;21.80;80.10;;;;;;5006211;28;20029;-81
2021/08/24 10:49:58;;;;;;;7.90;2.35;;;21.90;80.50;;;;;;4999580;28;20064;-81
2021/08/24 10:52:47;;;;;;;6.85;2.38;;;21.90;80.30;;;;;;4996731;28;20482;-79
2021/08/24 10:55:16;;;;;;;7.40;2.35;;;21.90;80.00;;;;;;5009239;28;20069;-82
2021/08/24 10:58:06;;;;;;;5.28;2.22;;;22.00;80.10;;;;;;4999535;28;20061;-81
2021/08/24 11:00:42;;;;;;;6.15;2.28;;;22.00;80.00;;;;;;5008023;28;20034;-81
2021/08/24 11:03:38;;;;;;;7.25;2.00;;;22.10;80.20;;;;;;5003734;28;20042;-81
2021/08/24 11:06:26;;;;;;;3.97;1.92;;;22.10;80.50;;;;;;5006114;28;20040;-81
2021/08/24 11:08:56;;;;;;;5.68;2.22;;;22.20;79.60;;;;;;5006036;28;20030;-88
2021/08/24 11:11:30;;;;;;;5.22;1.90;;;22.20;79.40;;;;;;5001874;28;20037;-86
2021/08/24 11:14:34;;;;;;;5.35;2.05;;;22.20;78.90;;;;;;5012868;28;20053;-87
2021/08/24 11:17:08;;;;;;;9.10;2.05;;;22.30;78.90;;;;;;5005357;28;20026;-87
2021/08/24 11:19:39;;;;;;;6.85;2.30;;;22.30;78.80;;;;;;5004755;28;20041;-88
2021/08/24 11:22:30;;;;;;;6.43;2.20;;;22.40;78.90;;;;;;5011251;28;20041;-89
2021/08/24 11:25:07;;;;;;;7.50;2.53;;;22.40;79.20;;;;;;5011452;28;20405;-88
2021/08/24 11:28:00;;;;;;;4.32;2.17;;;22.50;79.40;;;;;;5009389;28;20118;-87
2021/08/24 11:30:44;;;;;;;6.13;2.50;;;22.50;78.80;;;;;;4993560;28;20048;-88
2021/08/24 11:33:31;;;;;;;9.07;2.50;;;22.50;78.70;;;;;;5006069;28;20037;-88
2021/08/24 11:36:06;;;;;;;7.90;2.30;;;22.60;78.50;;;;;;5011185;28;20034;-88
2021/08/24 11:38:35;;;;;;;8.27;2.20;;;22.60;78.50;;;;;;5004658;28;20034;-88
2021/08/24 11:41:22;;;;;;;9.15;2.15;;;22.60;78.60;;;;;;5012009;28;20082;-88
2021/08/24 11:44:12;;;;;;;6.95;2.35;;;22.60;78.30;;;;;;5010886;28;20492;-88
2021/08/24 11:46:48;;;;;;;8.30;2.25;;;22.70;78.60;;;;;;5006351;28;20026;-89
2021/08/24 11:49:47;;;;;;;10.38;2.78;;;22.70;78.60;;;;;;5008097;28;20486;-88
2021/08/24 11:52:31;;;;;;;6.20;2.47;;;22.70;77.90;;;;;;4999675;28;20056;-87
2021/08/24 11:55:13;;;;;;;11.40;2.22;;;22.70;78.30;;;;;;5009210;28;20030;-89
2021/08/24 11:57:47;;;;;;;6.97;2.20;;;22.80;78.30;;;;;;5007904;28;20029;-88
2021/08/24 12:00:15;;;;;;;5.68;2.17;;;22.80;78.70;;;;;;5005509;28;20543;-88
2021/08/24 12:02:49;;;;;;;5.47;2.40;;;22.80;78.40;;;;;;5010394;28;20056;-88
2021/08/24 12:05:30;;;;;;;6.30;2.45;;;22.80;78.40;;;;;;5002804;28;20038;-83
2021/08/24 12:08:06;;;;;;;4.45;2.38;;;22.90;78.50;;;;;;4999352;28;20050;-82
2021/08/24 12:10:35;;;;;;;10.48;2.40;;;22.90;78.20;;;;;;5005252;28;20030;-82
2021/08/24 12:13:05;;;;;;;6.00;2.05;;;22.90;78.50;;;;;;5002088;28;20030;-83
2021/08/24 12:15:45;;;;;;;4.30;2.33;;;23.00;77.50;;;;;;4999520;28;20034;-82
2021/08/24 12:18:25;;;;;;;7.78;2.40;;;23.00;77.50;;;;;;5001678;28;20115;-82
2021/08/24 12:21:31;;;;;;;5.35;2.35;;;23.10;78.00;;;;;;5007450;28;20056;-82
2021/08/24 12:24:17;;;;;;;5.70;2.00;;;23.10;78.50;;;;;;5004150;28;20385;-82
2021/08/24 12:26:43;;;;;;;8.27;2.30;;;23.10;77.40;;;;;;5009541;28;20482;-82
2021/08/24 12:29:31;;;;;;;6.78;2.30;;;23.10;77.50;;;;;;5008098;28;20037;-82
2021/08/24 12:31:58;;;;;;;9.65;2.35;;;23.10;77.80;;;;;;5003716;28;20080;-89
2021/08/24 12:34:41;;;;;;;7.50;2.50;;;23.20;77.50;;;;;;5015654;28;20489;-72
2021/08/24 12:37:19;;;;;;;5.78;2.42;;;23.20;77.60;;;;;;5010312;28;20145;-85
2021/08/24 12:39:52;;;;;;;5.57;2.05;;;23.20;77.10;;;;;;5017944;28;20087;-85
2021/08/24 12:42:27;;;;;;;8.68;1.98;;;23.20;77.10;;;;;;5018994;28;20046;-85
2021/08/24 12:44:58;;;;;;;8.95;2.40;;;23.20;77.00;;;;;;5008480;28;20029;-83
2021/08/24 12:47:28;;;;;;;4.57;2.17;;;23.30;77.40;;;;;;5009202;28;20041;-85
2021/08/24 12:49:54;;;;;;;4.82;2.45;;;23.30;77.50;;;;;;5013380;28;20030;-84
2021/08/24 12:52:39;;;;;;;7.45;2.90;;;23.30;77.60;;;;;;5014634;28;20105;-84
2021/08/24 12:55:31;;;;;;;9.55;2.50;;;23.20;76.70;;;;;;5008923;28;20025;-83
2021/08/24 12:58:19;;;;;;;8.33;2.37;;;23.30;76.50;;;;;;5013251;28;20493;-83
2021/08/24 13:01:25;;;;;;;10.07;2.40;;;23.30;77.30;;;;;;4998473;28;20309;-85
2021/08/24 13:03:59;;;;;;;4.78;2.20;;;23.30;77.80;;;;;;5009146;28;20494;-81
2021/08/24 13:06:32;;;;;;;5.53;2.33;;;23.30;77.30;;;;;;5010054;28;20034;-80
2021/08/24 13:09:23;;;;;;;9.52;2.80;;;23.30;77.30;;;;;;5007411;28;20025;-81
2021/08/24 13:12:09;;;;;;;5.45;2.85;;;23.30;77.80;;;;;;5006633;28;20030;-82
2021/08/24 13:14:52;;;;;;;7.82;2.20;;;23.40;78.70;;;;;;5004328;28;20030;-82